sensor_id;sensor_type;location;lat;lon;timestamp;P1;durP1;ratioP1;P2;durP2;ratioP2
68888;SDS011;55930;47.412;8.790;2024-01-25T00:00:18;2.20;;;0.87;;
68888;SDS011;55930;47.412;8.790;2024-01-25T00:03:39;1.23;;;0.70;;
68888;SDS011;55930;47.412;8.790;2024-01-25T00:07:01;2.45;;;1.60;;
68888;SDS011;55930;47.412;8.790;2024-01-25T00:10:22;2.83;;;1.00;;
68888;SDS011;55930;47.412;8.790;2024-01-25T00:13:42;2.40;;;0.80;;
68888;SDS011;55930;47.412;8.790;2024-01-25T00:17:03;2.93;;;0.80;;
68888;SDS011;55930;47.412;8.790;2024-01-25T00:20:23;5.63;;;1.20;;
68888;SDS011;55930;47.412;8.790;2024-01-25T00:23:43;2.53;;;1.10;;
68888;SDS011;55930;47.412;8.790;2024-01-25T00:27:04;2.30;;;0.90;;
68888;SDS011;55930;47.412;8.790;2024-01-25T00:30:24;2.67;;;0.80;;
68888;SDS011;55930;47.412;8.790;2024-01-25T00:33:47;3.03;;;1.00;;
68888;SDS011;55930;47.412;8.790;2024-01-25T00:37:08;5.85;;;1.00;;
68888;SDS011;55930;47.412;8.790;2024-01-25T00:40:28;4.35;;;1.25;;
68888;SDS011;55930;47.412;8.790;2024-01-25T00:43:49;5.40;;;1.03;;
68888;SDS011;55930;47.412;8.790;2024-01-25T00:47:10;4.20;;;1.27;;
68888;SDS011;55930;47.412;8.790;2024-01-25T00:50:31;5.35;;;1.15;;
68888;SDS011;55930;47.412;8.790;2024-01-25T00:53:51;5.87;;;1.70;;
68888;SDS011;55930;47.412;8.790;2024-01-25T00:57:12;7.38;;;1.20;;
68888;SDS011;55930;47.412;8.790;2024-01-25T01:00:32;6.93;;;0.93;;
68888;SDS011;55930;47.412;8.790;2024-01-25T01:03:53;4.40;;;1.10;;
68888;SDS011;55930;47.412;8.790;2024-01-25T01:07:15;6.07;;;0.90;;
68888;SDS011;55930;47.412;8.790;2024-01-25T01:10:37;3.17;;;0.85;;
68888;SDS011;55930;47.412;8.790;2024-01-25T01:13:57;3.17;;;1.03;;
68888;SDS011;55930;47.412;8.790;2024-01-25T01:17:17;6.03;;;1.20;;
68888;SDS011;55930;47.412;8.790;2024-01-25T01:20:38;4.22;;;1.05;;
68888;SDS011;55930;47.412;8.790;2024-01-25T01:23:59;6.00;;;1.37;;
68888;SDS011;55930;47.412;8.790;2024-01-25T01:27:19;4.23;;;1.10;;
68888;SDS011;55930;47.412;8.790;2024-01-25T01:30:42;7.28;;;1.23;;
68888;SDS011;55930;47.412;8.790;2024-01-25T01:34:02;7.80;;;1.20;;
68888;SDS011;55930;47.412;8.790;2024-01-25T01:37:22;4.97;;;1.03;;
68888;SDS011;55930;47.412;8.790;2024-01-25T01:40:44;6.77;;;1.27;;
68888;SDS011;55930;47.412;8.790;2024-01-25T01:44:06;7.97;;;1.27;;
68888;SDS011;55930;47.412;8.790;2024-01-25T01:47:26;5.40;;;1.40;;
68888;SDS011;55930;47.412;8.790;2024-01-25T01:50:47;8.17;;;1.37;;
68888;SDS011;55930;47.412;8.790;2024-01-25T01:54:07;9.00;;;1.53;;
68888;SDS011;55930;47.412;8.790;2024-01-25T01:57:28;5.53;;;1.13;;
68888;SDS011;55930;47.412;8.790;2024-01-25T02:00:49;3.85;;;1.58;;
68888;SDS011;55930;47.412;8.790;2024-01-25T02:07:30;7.10;;;1.03;;
68888;SDS011;55930;47.412;8.790;2024-01-25T02:10:51;4.87;;;0.90;;
68888;SDS011;55930;47.412;8.790;2024-01-25T02:14:11;5.40;;;0.63;;
68888;SDS011;55930;47.412;8.790;2024-01-25T02:17:33;3.80;;;1.17;;
68888;SDS011;55930;47.412;8.790;2024-01-25T02:20:53;4.87;;;0.90;;
68888;SDS011;55930;47.412;8.790;2024-01-25T02:24:14;4.30;;;1.27;;
68888;SDS011;55930;47.412;8.790;2024-01-25T02:27:34;2.13;;;0.80;;
68888;SDS011;55930;47.412;8.790;2024-01-25T02:30:59;2.88;;;0.80;;
68888;SDS011;55930;47.412;8.790;2024-01-25T02:34:21;3.03;;;0.77;;
68888;SDS011;55930;47.412;8.790;2024-01-25T02:37:41;1.40;;;0.53;;
68888;SDS011;55930;47.412;8.790;2024-01-25T02:41:02;1.03;;;0.60;;
68888;SDS011;55930;47.412;8.790;2024-01-25T02:44:22;1.80;;;0.60;;
68888;SDS011;55930;47.412;8.790;2024-01-25T02:47:43;3.33;;;0.50;;
68888;SDS011;55930;47.412;8.790;2024-01-25T02:51:03;1.17;;;0.63;;
68888;SDS011;55930;47.412;8.790;2024-01-25T02:54:24;1.70;;;0.50;;
68888;SDS011;55930;47.412;8.790;2024-01-25T02:57:44;2.10;;;0.47;;
68888;SDS011;55930;47.412;8.790;2024-01-25T03:01:04;0.93;;;0.40;;
68888;SDS011;55930;47.412;8.790;2024-01-25T03:04:25;0.50;;;0.40;;
68888;SDS011;55930;47.412;8.790;2024-01-25T03:07:45;1.30;;;0.30;;
68888;SDS011;55930;47.412;8.790;2024-01-25T03:11:05;0.67;;;0.50;;
68888;SDS011;55930;47.412;8.790;2024-01-25T03:14:26;0.73;;;0.50;;
68888;SDS011;55930;47.412;8.790;2024-01-25T03:17:46;0.50;;;0.50;;
68888;SDS011;55930;47.412;8.790;2024-01-25T03:21:07;0.60;;;0.60;;
68888;SDS011;55930;47.412;8.790;2024-01-25T03:24:29;1.85;;;0.60;;
68888;SDS011;55930;47.412;8.790;2024-01-25T03:27:52;0.57;;;0.57;;
68888;SDS011;55930;47.412;8.790;2024-01-25T03:31:12;0.50;;;0.50;;
68888;SDS011;55930;47.412;8.790;2024-01-25T03:34:33;0.30;;;0.30;;
68888;SDS011;55930;47.412;8.790;2024-01-25T03:37:53;0.43;;;0.43;;
68888;SDS011;55930;47.412;8.790;2024-01-25T03:41:16;0.55;;;0.32;;
68888;SDS011;55930;47.412;8.790;2024-01-25T03:44:36;0.30;;;0.30;;
68888;SDS011;55930;47.412;8.790;2024-01-25T03:47:57;0.90;;;0.20;;
68888;SDS011;55930;47.412;8.790;2024-01-25T03:51:17;0.20;;;0.20;;
68888;SDS011;55930;47.412;8.790;2024-01-25T03:54:40;0.20;;;0.20;;
68888;SDS011;55930;47.412;8.790;2024-01-25T03:58:01;0.28;;;0.20;;
68888;SDS011;55930;47.412;8.790;2024-01-25T04:01:21;0.30;;;0.20;;
68888;SDS011;55930;47.412;8.790;2024-01-25T04:04:44;0.20;;;0.20;;
68888;SDS011;55930;47.412;8.790;2024-01-25T04:08:04;0.20;;;0.20;;
68888;SDS011;55930;47.412;8.790;2024-01-25T04:11:25;0.20;;;0.20;;
68888;SDS011;55930;47.412;8.790;2024-01-25T04:14:45;0.20;;;0.20;;
68888;SDS011;55930;47.412;8.790;2024-01-25T04:18:05;0.20;;;0.20;;
68888;SDS011;55930;47.412;8.790;2024-01-25T04:21:26;0.30;;;0.30;;
68888;SDS011;55930;47.412;8.790;2024-01-25T04:24:47;0.20;;;0.20;;
68888;SDS011;55930;47.412;8.790;2024-01-25T04:28:09;0.50;;;0.50;;
68888;SDS011;55930;47.412;8.790;2024-01-25T04:31:29;0.50;;;0.37;;
68888;SDS011;55930;47.412;8.790;2024-01-25T04:34:50;0.70;;;0.70;;
68888;SDS011;55930;47.412;8.790;2024-01-25T04:38:10;1.70;;;0.97;;
68888;SDS011;55930;47.412;8.790;2024-01-25T04:41:31;1.63;;;1.20;;
68888;SDS011;55930;47.412;8.790;2024-01-25T04:44:52;1.10;;;1.00;;
68888;SDS011;55930;47.412;8.790;2024-01-25T04:48:15;1.67;;;1.57;;
68888;SDS011;55930;47.412;8.790;2024-01-25T04:51:35;1.70;;;1.60;;
68888;SDS011;55930;47.412;8.790;2024-01-25T04:54:56;2.70;;;2.00;;
68888;SDS011;55930;47.412;8.790;2024-01-25T04:58:16;2.67;;;2.37;;
68888;SDS011;55930;47.412;8.790;2024-01-25T05:01:37;2.67;;;2.47;;
68888;SDS011;55930;47.412;8.790;2024-01-25T05:04:57;3.27;;;2.83;;
68888;SDS011;55930;47.412;8.790;2024-01-25T05:08:20;3.67;;;3.00;;
68888;SDS011;55930;47.412;8.790;2024-01-25T05:11:40;4.57;;;3.20;;
68888;SDS011;55930;47.412;8.790;2024-01-25T05:15:01;4.70;;;4.20;;
68888;SDS011;55930;47.412;8.790;2024-01-25T05:18:21;5.37;;;4.07;;
68888;SDS011;55930;47.412;8.790;2024-01-25T05:21:42;5.13;;;4.10;;
68888;SDS011;55930;47.412;8.790;2024-01-25T05:25:02;4.13;;;3.47;;
68888;SDS011;55930;47.412;8.790;2024-01-25T05:28:24;5.32;;;4.22;;
68888;SDS011;55930;47.412;8.790;2024-01-25T05:31:45;4.00;;;3.20;;
68888;SDS011;55930;47.412;8.790;2024-01-25T05:35:06;3.83;;;3.40;;
68888;SDS011;55930;47.412;8.790;2024-01-25T05:38:29;4.05;;;3.30;;
68888;SDS011;55930;47.412;8.790;2024-01-25T05:45:09;3.13;;;2.67;;
68888;SDS011;55930;47.412;8.790;2024-01-25T05:48:30;3.60;;;2.73;;
68888;SDS011;55930;47.412;8.790;2024-01-25T05:51:51;3.93;;;3.23;;
68888;SDS011;55930;47.412;8.790;2024-01-25T05:55:13;3.60;;;2.87;;
68888;SDS011;55930;47.412;8.790;2024-01-25T05:58:34;3.25;;;2.65;;
68888;SDS011;55930;47.412;8.790;2024-01-25T06:01:55;3.40;;;2.60;;
68888;SDS011;55930;47.412;8.790;2024-01-25T06:05:15;3.93;;;2.30;;
68888;SDS011;55930;47.412;8.790;2024-01-25T06:08:38;2.93;;;2.43;;
68888;SDS011;55930;47.412;8.790;2024-01-25T06:12:01;3.50;;;2.70;;
68888;SDS011;55930;47.412;8.790;2024-01-25T06:15:21;1.33;;;1.23;;
68888;SDS011;55930;47.412;8.790;2024-01-25T06:18:41;0.57;;;0.57;;
68888;SDS011;55930;47.412;8.790;2024-01-25T06:22:02;0.37;;;0.37;;
68888;SDS011;55930;47.412;8.790;2024-01-25T06:25:22;0.80;;;0.50;;
68888;SDS011;55930;47.412;8.790;2024-01-25T06:28:43;2.00;;;0.50;;
68888;SDS011;55930;47.412;8.790;2024-01-25T06:32:03;0.40;;;0.40;;
68888;SDS011;55930;47.412;8.790;2024-01-25T06:35:24;0.30;;;0.30;;
68888;SDS011;55930;47.412;8.790;2024-01-25T06:38:44;0.87;;;0.30;;
68888;SDS011;55930;47.412;8.790;2024-01-25T06:42:05;0.20;;;0.20;;
68888;SDS011;55930;47.412;8.790;2024-01-25T06:45:26;0.20;;;0.20;;
68888;SDS011;55930;47.412;8.790;2024-01-25T06:48:46;0.23;;;0.23;;
68888;SDS011;55930;47.412;8.790;2024-01-25T06:52:06;0.40;;;0.40;;
68888;SDS011;55930;47.412;8.790;2024-01-25T06:55:27;0.87;;;0.40;;
68888;SDS011;55930;47.412;8.790;2024-01-25T06:58:47;0.43;;;0.43;;
68888;SDS011;55930;47.412;8.790;2024-01-25T07:02:07;0.53;;;0.37;;
68888;SDS011;55930;47.412;8.790;2024-01-25T07:05:28;0.20;;;0.20;;
68888;SDS011;55930;47.412;8.790;2024-01-25T07:08:50;1.42;;;0.20;;
68888;SDS011;55930;47.412;8.790;2024-01-25T07:12:10;0.30;;;0.30;;
68888;SDS011;55930;47.412;8.790;2024-01-25T07:15:31;0.20;;;0.20;;
68888;SDS011;55930;47.412;8.790;2024-01-25T07:18:54;0.20;;;0.20;;
68888;SDS011;55930;47.412;8.790;2024-01-25T07:22:14;0.30;;;0.30;;
68888;SDS011;55930;47.412;8.790;2024-01-25T07:25:37;0.40;;;0.40;;
68888;SDS011;55930;47.412;8.790;2024-01-25T07:28:57;5.13;;;0.80;;
68888;SDS011;55930;47.412;8.790;2024-01-25T07:32:19;1.02;;;0.60;;
68888;SDS011;55930;47.412;8.790;2024-01-25T07:35:40;0.60;;;0.60;;
68888;SDS011;55930;47.412;8.790;2024-01-25T07:39:05;1.33;;;0.50;;
68888;SDS011;55930;47.412;8.790;2024-01-25T07:42:26;0.70;;;0.70;;
68888;SDS011;55930;47.412;8.790;2024-01-25T07:45:48;0.40;;;0.40;;
68888;SDS011;55930;47.412;8.790;2024-01-25T07:49:09;0.70;;;0.60;;
68888;SDS011;55930;47.412;8.790;2024-01-25T07:52:29;0.50;;;0.50;;
68888;SDS011;55930;47.412;8.790;2024-01-25T07:55:50;0.87;;;0.67;;
68888;SDS011;55930;47.412;8.790;2024-01-25T07:59:10;0.63;;;0.50;;
68888;SDS011;55930;47.412;8.790;2024-01-25T08:02:33;1.20;;;1.10;;
68888;SDS011;55930;47.412;8.790;2024-01-25T08:05:55;2.05;;;1.20;;
68888;SDS011;55930;47.412;8.790;2024-01-25T08:09:15;1.37;;;1.10;;
68888;SDS011;55930;47.412;8.790;2024-01-25T08:12:37;1.83;;;1.55;;
68888;SDS011;55930;47.412;8.790;2024-01-25T08:15:59;2.63;;;1.25;;
68888;SDS011;55930;47.412;8.790;2024-01-25T08:19:20;0.73;;;0.73;;
68888;SDS011;55930;47.412;8.790;2024-01-25T08:22:40;1.30;;;0.93;;
68888;SDS011;55930;47.412;8.790;2024-01-25T08:26:01;1.73;;;1.00;;
68888;SDS011;55930;47.412;8.790;2024-01-25T08:29:22;1.37;;;1.20;;
68888;SDS011;55930;47.412;8.790;2024-01-25T08:32:42;1.10;;;1.00;;
68888;SDS011;55930;47.412;8.790;2024-01-25T08:36:03;1.33;;;1.20;;
68888;SDS011;55930;47.412;8.790;2024-01-25T08:39:26;2.20;;;1.30;;
68888;SDS011;55930;47.412;8.790;2024-01-25T08:42:47;1.20;;;1.10;;
68888;SDS011;55930;47.412;8.790;2024-01-25T08:46:07;0.80;;;0.80;;
68888;SDS011;55930;47.412;8.790;2024-01-25T08:49:28;0.90;;;0.90;;
68888;SDS011;55930;47.412;8.790;2024-01-25T08:52:51;1.45;;;0.98;;
68888;SDS011;55930;47.412;8.790;2024-01-25T08:56:11;0.90;;;0.60;;
68888;SDS011;55930;47.412;8.790;2024-01-25T08:59:33;0.70;;;0.60;;
68888;SDS011;55930;47.412;8.790;2024-01-25T09:02:56;0.68;;;0.65;;
68888;SDS011;55930;47.412;8.790;2024-01-25T09:06:17;0.77;;;0.77;;
68888;SDS011;55930;47.412;8.790;2024-01-25T09:09:37;0.80;;;0.80;;
68888;SDS011;55930;47.412;8.790;2024-01-25T09:12:57;0.87;;;0.80;;
68888;SDS011;55930;47.412;8.790;2024-01-25T09:16:18;1.07;;;0.80;;
68888;SDS011;55930;47.412;8.790;2024-01-25T09:19:38;1.57;;;0.80;;
68888;SDS011;55930;47.412;8.790;2024-01-25T09:23:01;0.93;;;0.70;;
68888;SDS011;55930;47.412;8.790;2024-01-25T09:26:21;0.70;;;0.70;;
68888;SDS011;55930;47.412;8.790;2024-01-25T09:29:42;0.70;;;0.70;;
68888;SDS011;55930;47.412;8.790;2024-01-25T09:33:02;0.77;;;0.77;;
68888;SDS011;55930;47.412;8.790;2024-01-25T09:36:23;1.53;;;0.80;;
68888;SDS011;55930;47.412;8.790;2024-01-25T09:39:46;0.68;;;0.68;;
68888;SDS011;55930;47.412;8.790;2024-01-25T09:43:06;0.60;;;0.60;;
68888;SDS011;55930;47.412;8.790;2024-01-25T09:46:27;1.05;;;0.95;;
68888;SDS011;55930;47.412;8.790;2024-01-25T09:49:47;0.70;;;0.70;;
68888;SDS011;55930;47.412;8.790;2024-01-25T09:53:08;0.97;;;0.80;;
68888;SDS011;55930;47.412;8.790;2024-01-25T09:56:37;0.80;;;0.80;;
68888;SDS011;55930;47.412;8.790;2024-01-25T10:00:01;0.95;;;0.80;;
68888;SDS011;55930;47.412;8.790;2024-01-25T10:03:21;1.43;;;0.80;;
68888;SDS011;55930;47.412;8.790;2024-01-25T10:06:41;0.77;;;0.70;;
68888;SDS011;55930;47.412;8.790;2024-01-25T10:10:02;0.90;;;0.90;;
68888;SDS011;55930;47.412;8.790;2024-01-25T10:13:24;1.17;;;1.08;;
68888;SDS011;55930;47.412;8.790;2024-01-25T10:16:44;0.93;;;0.83;;
68888;SDS011;55930;47.412;8.790;2024-01-25T10:20:05;0.50;;;0.50;;
68888;SDS011;55930;47.412;8.790;2024-01-25T10:23:30;0.80;;;0.80;;
68888;SDS011;55930;47.412;8.790;2024-01-25T10:26:53;0.82;;;0.75;;
68888;SDS011;55930;47.412;8.790;2024-01-25T10:30:14;0.70;;;0.70;;
68888;SDS011;55930;47.412;8.790;2024-01-25T10:33:38;1.13;;;0.90;;
68888;SDS011;55930;47.412;8.790;2024-01-25T10:36:58;0.70;;;0.70;;
68888;SDS011;55930;47.412;8.790;2024-01-25T10:40:19;0.80;;;0.80;;
68888;SDS011;55930;47.412;8.790;2024-01-25T10:43:40;1.05;;;0.80;;
68888;SDS011;55930;47.412;8.790;2024-01-25T10:47:03;0.65;;;0.65;;
68888;SDS011;55930;47.412;8.790;2024-01-25T10:50:26;1.20;;;0.88;;
68888;SDS011;55930;47.412;8.790;2024-01-25T10:53:46;0.87;;;0.63;;
68888;SDS011;55930;47.412;8.790;2024-01-25T10:57:07;1.55;;;0.50;;
68888;SDS011;55930;47.412;8.790;2024-01-25T11:03:53;0.50;;;0.50;;
68888;SDS011;55930;47.412;8.790;2024-01-25T11:07:14;0.60;;;0.60;;
68888;SDS011;55930;47.412;8.790;2024-01-25T11:10:34;0.63;;;0.60;;
68888;SDS011;55930;47.412;8.790;2024-01-25T11:13:55;0.93;;;0.73;;
68888;SDS011;55930;47.412;8.790;2024-01-25T11:17:22;2.33;;;1.08;;
68888;SDS011;55930;47.412;8.790;2024-01-25T11:20:46;1.20;;;1.10;;
68888;SDS011;55930;47.412;8.790;2024-01-25T11:24:19;1.67;;;1.58;;
68888;SDS011;55930;47.412;8.790;2024-01-25T11:27:39;2.10;;;1.90;;
68888;SDS011;55930;47.412;8.790;2024-01-25T11:31:00;2.50;;;2.30;;
68888;SDS011;55930;47.412;8.790;2024-01-25T11:34:20;2.90;;;2.20;;
68888;SDS011;55930;47.412;8.790;2024-01-25T11:37:47;3.80;;;2.55;;
68888;SDS011;55930;47.412;8.790;2024-01-25T11:41:08;3.15;;;2.72;;
68888;SDS011;55930;47.412;8.790;2024-01-25T11:44:28;4.83;;;3.07;;
68888;SDS011;55930;47.412;8.790;2024-01-25T11:47:49;3.25;;;2.95;;
68888;SDS011;55930;47.412;8.790;2024-01-25T11:51:10;4.07;;;3.25;;
68888;SDS011;55930;47.412;8.790;2024-01-25T11:54:31;10.10;;;5.25;;
68888;SDS011;55930;47.412;8.790;2024-01-25T11:57:51;4.90;;;3.43;;
68888;SDS011;55930;47.412;8.790;2024-01-25T12:01:13;5.70;;;3.53;;
68888;SDS011;55930;47.412;8.790;2024-01-25T12:04:35;4.15;;;3.72;;
68888;SDS011;55930;47.412;8.790;2024-01-25T12:07:55;3.67;;;3.33;;
68888;SDS011;55930;47.412;8.790;2024-01-25T12:11:16;4.00;;;3.57;;
68888;SDS011;55930;47.412;8.790;2024-01-25T12:14:37;3.97;;;3.10;;
68888;SDS011;55930;47.412;8.790;2024-01-25T12:17:58;4.07;;;3.47;;
68888;SDS011;55930;47.412;8.790;2024-01-25T12:21:18;3.47;;;3.17;;
68888;SDS011;55930;47.412;8.790;2024-01-25T12:24:41;2.97;;;2.67;;
68888;SDS011;55930;47.412;8.790;2024-01-25T12:28:03;3.08;;;2.78;;
68888;SDS011;55930;47.412;8.790;2024-01-25T12:31:24;2.50;;;2.30;;
68888;SDS011;55930;47.412;8.790;2024-01-25T12:34:58;3.30;;;2.50;;
68888;SDS011;55930;47.412;8.790;2024-01-25T12:38:21;3.50;;;2.42;;
68888;SDS011;55930;47.412;8.790;2024-01-25T12:41:42;2.70;;;2.22;;
68888;SDS011;55930;47.412;8.790;2024-01-25T12:45:03;2.95;;;2.45;;
68888;SDS011;55930;47.412;8.790;2024-01-25T12:48:24;3.53;;;2.83;;
68888;SDS011;55930;47.412;8.790;2024-01-25T12:51:44;3.17;;;2.60;;
68888;SDS011;55930;47.412;8.790;2024-01-25T12:55:05;2.97;;;2.30;;
68888;SDS011;55930;47.412;8.790;2024-01-25T12:58:26;2.78;;;2.22;;
68888;SDS011;55930;47.412;8.790;2024-01-25T13:01:47;2.65;;;2.45;;
68888;SDS011;55930;47.412;8.790;2024-01-25T13:05:07;3.77;;;2.53;;
68888;SDS011;55930;47.412;8.790;2024-01-25T13:08:28;2.42;;;2.22;;
68888;SDS011;55930;47.412;8.790;2024-01-25T13:11:49;2.92;;;2.63;;
68888;SDS011;55930;47.412;8.790;2024-01-25T13:15:09;2.42;;;2.13;;
68888;SDS011;55930;47.412;8.790;2024-01-25T13:18:30;4.10;;;2.20;;
68888;SDS011;55930;47.412;8.790;2024-01-25T13:21:50;3.00;;;2.10;;
68888;SDS011;55930;47.412;8.790;2024-01-25T13:25:11;2.10;;;1.90;;
68888;SDS011;55930;47.412;8.790;2024-01-25T13:28:32;1.80;;;1.70;;
68888;SDS011;55930;47.412;8.790;2024-01-25T13:31:52;2.03;;;1.50;;
68888;SDS011;55930;47.412;8.790;2024-01-25T13:35:12;1.40;;;1.30;;
68888;SDS011;55930;47.412;8.790;2024-01-25T13:38:33;1.73;;;1.60;;
68888;SDS011;55930;47.412;8.790;2024-01-25T13:41:56;2.38;;;1.48;;
68888;SDS011;55930;47.412;8.790;2024-01-25T13:45:19;1.45;;;1.25;;
68888;SDS011;55930;47.412;8.790;2024-01-25T13:48:39;2.00;;;1.67;;
68888;SDS011;55930;47.412;8.790;2024-01-25T13:52:00;1.93;;;1.43;;
68888;SDS011;55930;47.412;8.790;2024-01-25T13:55:24;1.30;;;1.20;;
68888;SDS011;55930;47.412;8.790;2024-01-25T13:58:44;1.63;;;1.07;;
68888;SDS011;55930;47.412;8.790;2024-01-25T14:02:05;1.50;;;1.23;;
68888;SDS011;55930;47.412;8.790;2024-01-25T14:05:27;1.40;;;1.13;;
68888;SDS011;55930;47.412;8.790;2024-01-25T14:08:48;1.60;;;1.40;;
68888;SDS011;55930;47.412;8.790;2024-01-25T14:12:08;2.47;;;1.40;;
68888;SDS011;55930;47.412;8.790;2024-01-25T14:15:29;1.50;;;1.40;;
68888;SDS011;55930;47.412;8.790;2024-01-25T14:18:49;1.80;;;1.50;;
68888;SDS011;55930;47.412;8.790;2024-01-25T14:22:09;1.07;;;1.00;;
68888;SDS011;55930;47.412;8.790;2024-01-25T14:25:31;1.42;;;1.33;;
68888;SDS011;55930;47.412;8.790;2024-01-25T14:28:51;1.40;;;1.30;;
68888;SDS011;55930;47.412;8.790;2024-01-25T14:32:11;1.67;;;1.30;;
68888;SDS011;55930;47.412;8.790;2024-01-25T14:35:32;1.23;;;1.10;;
68888;SDS011;55930;47.412;8.790;2024-01-25T14:38:55;1.58;;;1.40;;
68888;SDS011;55930;47.412;8.790;2024-01-25T14:42:15;1.60;;;1.10;;
68888;SDS011;55930;47.412;8.790;2024-01-25T14:45:35;2.00;;;0.80;;
68888;SDS011;55930;47.412;8.790;2024-01-25T14:48:58;0.60;;;0.60;;
68888;SDS011;55930;47.412;8.790;2024-01-25T14:52:19;0.88;;;0.85;;
68888;SDS011;55930;47.412;8.790;2024-01-25T14:55:39;1.10;;;0.90;;
68888;SDS011;55930;47.412;8.790;2024-01-25T14:59:00;0.60;;;0.60;;
68888;SDS011;55930;47.412;8.790;2024-01-25T15:02:20;0.90;;;0.83;;
68888;SDS011;55930;47.412;8.790;2024-01-25T15:05:41;0.90;;;0.80;;
68888;SDS011;55930;47.412;8.790;2024-01-25T15:09:01;1.33;;;0.77;;
68888;SDS011;55930;47.412;8.790;2024-01-25T15:12:22;1.77;;;0.60;;
68888;SDS011;55930;47.412;8.790;2024-01-25T15:15:42;1.30;;;0.60;;
68888;SDS011;55930;47.412;8.790;2024-01-25T15:19:04;0.93;;;0.82;;
68888;SDS011;55930;47.412;8.790;2024-01-25T15:22:24;0.80;;;0.70;;
68888;SDS011;55930;47.412;8.790;2024-01-25T15:25:46;1.15;;;0.80;;
68888;SDS011;55930;47.412;8.790;2024-01-25T15:29:10;0.98;;;0.80;;
68888;SDS011;55930;47.412;8.790;2024-01-25T15:32:30;1.00;;;0.90;;
68888;SDS011;55930;47.412;8.790;2024-01-25T15:35:50;0.60;;;0.60;;
68888;SDS011;55930;47.412;8.790;2024-01-25T15:39:11;1.17;;;0.90;;
68888;SDS011;55930;47.412;8.790;2024-01-25T15:42:31;0.80;;;0.70;;
68888;SDS011;55930;47.412;8.790;2024-01-25T15:45:51;0.83;;;0.70;;
68888;SDS011;55930;47.412;8.790;2024-01-25T15:49:12;0.60;;;0.60;;
68888;SDS011;55930;47.412;8.790;2024-01-25T15:52:33;1.60;;;0.70;;
68888;SDS011;55930;47.412;8.790;2024-01-25T15:55:53;2.57;;;0.80;;
68888;SDS011;55930;47.412;8.790;2024-01-25T15:59:14;1.83;;;0.83;;
68888;SDS011;55930;47.412;8.790;2024-01-25T16:02:34;1.95;;;1.00;;
68888;SDS011;55930;47.412;8.790;2024-01-25T16:05:54;1.13;;;0.50;;
68888;SDS011;55930;47.412;8.790;2024-01-25T16:09:18;1.30;;;0.77;;
68888;SDS011;55930;47.412;8.790;2024-01-25T16:12:38;0.95;;;0.70;;
68888;SDS011;55930;47.412;8.790;2024-01-25T16:15:58;0.70;;;0.70;;
68888;SDS011;55930;47.412;8.790;2024-01-25T16:19:19;4.40;;;0.77;;
68888;SDS011;55930;47.412;8.790;2024-01-25T16:22:39;0.80;;;0.70;;
68888;SDS011;55930;47.412;8.790;2024-01-25T16:25:59;0.87;;;0.70;;
68888;SDS011;55930;47.412;8.790;2024-01-25T16:29:20;1.43;;;0.87;;
68888;SDS011;55930;47.412;8.790;2024-01-25T16:32:40;0.90;;;0.80;;
68888;SDS011;55930;47.412;8.790;2024-01-25T16:36:03;1.37;;;0.80;;
68888;SDS011;55930;47.412;8.790;2024-01-25T16:39:24;1.77;;;0.80;;
68888;SDS011;55930;47.412;8.790;2024-01-25T16:42:44;0.97;;;0.80;;
68888;SDS011;55930;47.412;8.790;2024-01-25T16:46:05;0.93;;;0.63;;
68888;SDS011;55930;47.412;8.790;2024-01-25T16:49:25;1.00;;;0.80;;
68888;SDS011;55930;47.412;8.790;2024-01-25T16:52:47;1.17;;;1.08;;
68888;SDS011;55930;47.412;8.790;2024-01-25T16:56:09;1.23;;;0.90;;
68888;SDS011;55930;47.412;8.790;2024-01-25T16:59:30;4.17;;;1.20;;
68888;SDS011;55930;47.412;8.790;2024-01-25T17:02:50;1.40;;;0.90;;
68888;SDS011;55930;47.412;8.790;2024-01-25T17:06:10;0.97;;;0.50;;
68888;SDS011;55930;47.412;8.790;2024-01-25T17:09:31;0.50;;;0.50;;
68888;SDS011;55930;47.412;8.790;2024-01-25T17:12:51;1.27;;;0.50;;
68888;SDS011;55930;47.412;8.790;2024-01-25T17:16:12;0.47;;;0.47;;
68888;SDS011;55930;47.412;8.790;2024-01-25T17:19:32;0.40;;;0.40;;
68888;SDS011;55930;47.412;8.790;2024-01-25T17:22:55;0.65;;;0.50;;
68888;SDS011;55930;47.412;8.790;2024-01-25T17:26:17;0.50;;;0.40;;
68888;SDS011;55930;47.412;8.790;2024-01-25T17:29:38;0.50;;;0.50;;
68888;SDS011;55930;47.412;8.790;2024-01-25T17:32:58;0.60;;;0.60;;
68888;SDS011;55930;47.412;8.790;2024-01-25T17:36:18;0.80;;;0.50;;
68888;SDS011;55930;47.412;8.790;2024-01-25T17:39:39;0.50;;;0.50;;
68888;SDS011;55930;47.412;8.790;2024-01-25T17:42:59;0.50;;;0.50;;
68888;SDS011;55930;47.412;8.790;2024-01-25T17:46:20;0.67;;;0.60;;
68888;SDS011;55930;47.412;8.790;2024-01-25T17:49:40;0.67;;;0.50;;
68888;SDS011;55930;47.412;8.790;2024-01-25T17:53:01;0.77;;;0.63;;
68888;SDS011;55930;47.412;8.790;2024-01-25T17:56:22;3.33;;;2.53;;
68888;SDS011;55930;47.412;8.790;2024-01-25T17:59:45;1.70;;;1.33;;
68888;SDS011;55930;47.412;8.790;2024-01-25T18:03:05;1.30;;;0.80;;
68888;SDS011;55930;47.412;8.790;2024-01-25T18:06:25;1.73;;;0.60;;
68888;SDS011;55930;47.412;8.790;2024-01-25T18:09:46;0.93;;;0.50;;
68888;SDS011;55930;47.412;8.790;2024-01-25T18:13:07;0.98;;;0.70;;
68888;SDS011;55930;47.412;8.790;2024-01-25T18:16:27;2.47;;;1.87;;
68888;SDS011;55930;47.412;8.790;2024-01-25T18:19:48;2.53;;;1.70;;
68888;SDS011;55930;47.412;8.790;2024-01-25T18:23:08;1.57;;;1.00;;
68888;SDS011;55930;47.412;8.790;2024-01-25T18:26:29;1.70;;;1.60;;
68888;SDS011;55930;47.412;8.790;2024-01-25T18:29:54;2.63;;;2.28;;
68888;SDS011;55930;47.412;8.790;2024-01-25T18:33:14;3.13;;;1.93;;
68888;SDS011;55930;47.412;8.790;2024-01-25T18:36:35;1.17;;;0.97;;
68888;SDS011;55930;47.412;8.790;2024-01-25T18:39:57;1.17;;;0.60;;
68888;SDS011;55930;47.412;8.790;2024-01-25T18:43:20;2.35;;;0.75;;
68888;SDS011;55930;47.412;8.790;2024-01-25T18:46:43;2.22;;;0.98;;
68888;SDS011;55930;47.412;8.790;2024-01-25T18:50:05;1.83;;;0.80;;
68888;SDS011;55930;47.412;8.790;2024-01-25T18:53:25;0.98;;;0.60;;
68888;SDS011;55930;47.412;8.790;2024-01-25T18:56:46;2.23;;;0.80;;
68888;SDS011;55930;47.412;8.790;2024-01-25T19:00:07;2.58;;;0.70;;
68888;SDS011;55930;47.412;8.790;2024-01-25T19:03:31;2.90;;;0.68;;
68888;SDS011;55930;47.412;8.790;2024-01-25T19:06:52;2.20;;;1.33;;
68888;SDS011;55930;47.412;8.790;2024-01-25T19:10:14;0.60;;;0.60;;
68888;SDS011;55930;47.412;8.790;2024-01-25T19:13:38;1.60;;;0.82;;
68888;SDS011;55930;47.412;8.790;2024-01-25T19:16:58;2.77;;;0.87;;
68888;SDS011;55930;47.412;8.790;2024-01-25T19:20:20;3.40;;;1.10;;
68888;SDS011;55930;47.412;8.790;2024-01-25T19:23:41;1.57;;;1.07;;
68888;SDS011;55930;47.412;8.790;2024-01-25T19:27:02;0.97;;;0.87;;
68888;SDS011;55930;47.412;8.790;2024-01-25T19:30:23;1.38;;;0.88;;
68888;SDS011;55930;47.412;8.790;2024-01-25T19:33:43;0.87;;;0.67;;
68888;SDS011;55930;47.412;8.790;2024-01-25T19:37:04;2.57;;;0.70;;
68888;SDS011;55930;47.412;8.790;2024-01-25T19:40:27;2.57;;;0.80;;
68888;SDS011;55930;47.412;8.790;2024-01-25T19:43:47;2.25;;;0.70;;
68888;SDS011;55930;47.412;8.790;2024-01-25T19:47:07;0.87;;;0.77;;
68888;SDS011;55930;47.412;8.790;2024-01-25T19:50:28;1.50;;;0.87;;
68888;SDS011;55930;47.412;8.790;2024-01-25T19:53:48;1.53;;;0.90;;
68888;SDS011;55930;47.412;8.790;2024-01-25T19:57:09;1.10;;;0.98;;
68888;SDS011;55930;47.412;8.790;2024-01-25T20:00:30;1.83;;;0.93;;
68888;SDS011;55930;47.412;8.790;2024-01-25T20:03:51;1.40;;;0.83;;
68888;SDS011;55930;47.412;8.790;2024-01-25T20:07:12;1.40;;;0.90;;
68888;SDS011;55930;47.412;8.790;2024-01-25T20:10:36;3.30;;;1.00;;
68888;SDS011;55930;47.412;8.790;2024-01-25T20:13:56;1.07;;;0.90;;
68888;SDS011;55930;47.412;8.790;2024-01-25T20:17:17;2.00;;;1.20;;
68888;SDS011;55930;47.412;8.790;2024-01-25T20:20:38;2.03;;;1.42;;